Time;durP1;ratioP1;P1;durP2;ratioP2;P2;SDS_P1;SDS_P2;PMS_P1;PMS_P2;Temp;Humidity;BMP_temperature;BMP_pressure;BME280_temperature;BME280_humidity;BME280_pressure;Samples;Min_cycle;Max_cycle;Signal;HPM_P1;HPM_P2
2022/02/10 00:03:58;;;;;;;28.50;20.67;;;9.70;99.90;;;;;;5025860;28;20383;-43
2022/02/10 00:17:12;;;;;;;28.13;21.27;;;9.80;99.90;;;;;;5027195;28;20037;-43
2022/02/10 00:35:26;;;;;;;23.95;18.70;;;9.70;99.90;;;;;;5024569;28;20079;-42
2022/02/10 00:37:58;;;;;;;27.90;20.83;;;9.70;99.90;;;;;;5027017;28;20456;-43
2022/02/10 00:40:32;;;;;;;25.88;20.90;;;9.70;99.90;;;;;;5026199;28;20033;-43
2022/02/10 00:43:00;;;;;;;25.27;20.08;;;9.70;99.90;;;;;;5027124;28;20029;-43
2022/02/10 00:45:32;;;;;;;24.88;19.77;;;9.70;99.90;;;;;;5026083;28;20040;-42
2022/02/10 00:48:10;;;;;;;26.67;20.05;;;9.70;99.90;;;;;;5026645;28;20032;-42
2022/02/10 00:50:39;;;;;;;24.05;19.02;;;9.70;99.90;;;;;;5026467;28;20838;-43
2022/02/10 00:53:18;;;;;;;26.80;19.77;;;9.80;99.90;;;;;;5026796;28;20037;-43
2022/02/10 00:55:45;;;;;;;24.10;19.48;;;9.80;99.90;;;;;;5025423;28;20072;-43
2022/02/10 00:58:19;;;;;;;26.98;19.63;;;9.80;99.90;;;;;;5026136;28;20495;-43
2022/02/10 01:24:29;;;;;;;23.45;17.70;;;9.70;99.90;;;;;;4990204;28;20428;-42
2022/02/10 01:31:03;;;;;;;19.45;14.35;;;9.60;99.90;;;;;;5025162;28;20043;-43
2022/02/10 01:33:31;;;;;;;24.88;16.88;;;9.70;99.90;;;;;;5025091;28;20048;-42
2022/02/10 01:35:56;;;;;;;21.13;16.42;;;9.70;99.90;;;;;;5025833;28;20017;-41
2022/02/10 01:38:21;;;;;;;24.95;17.77;;;9.70;99.90;;;;;;5024714;28;20041;-43
2022/02/10 02:05:51;;;;;;;21.00;16.00;;;9.60;99.90;;;;;;5004259;28;20065;-43
2022/02/10 02:08:22;;;;;;;17.30;13.55;;;9.60;99.90;;;;;;5022460;28;20485;-43
2022/02/10 02:10:47;;;;;;;21.50;14.93;;;9.60;99.90;;;;;;5025308;28;20030;-42
2022/02/10 02:13:13;;;;;;;15.80;12.73;;;9.60;99.90;;;;;;5024144;28;20021;-43
2022/02/10 02:15:38;;;;;;;16.45;13.52;;;9.60;99.90;;;;;;5025387;28;20045;-43
2022/02/10 02:18:04;;;;;;;18.88;14.82;;;9.60;99.90;;;;;;5025626;28;20032;-42
2022/02/10 02:20:29;;;;;;;18.98;14.65;;;9.60;99.90;;;;;;5023960;28;20125;-43
2022/02/10 02:22:55;;;;;;;19.67;14.75;;;9.60;99.90;;;;;;5025003;28;20057;-43
2022/02/10 02:25:22;;;;;;;18.50;14.65;;;9.60;99.90;;;;;;5025246;28;20029;-43
2022/02/10 02:27:51;;;;;;;19.55;14.85;;;9.60;99.90;;;;;;5024548;28;20029;-44
2022/02/10 02:30:21;;;;;;;17.40;13.43;;;9.60;99.90;;;;;;5024616;28;20045;-44
2022/02/10 03:06:29;;;;;;;15.48;11.00;;;9.60;99.90;;;;;;5029527;28;20663;-41
2022/02/10 03:08:44;;;;;;;15.68;11.30;;;9.60;99.90;;;;;;5025559;28;20033;-41
2022/02/10 03:11:11;;;;;;;14.60;11.30;;;9.50;99.90;;;;;;5027968;28;20104;-42
2022/02/10 03:13:44;;;;;;;15.88;10.98;;;9.50;99.90;;;;;;5028474;28;20465;-43
2022/02/10 03:19:01;;;;;;;14.48;10.60;;;9.60;99.90;;;;;;5028156;28;20396;-42
2022/02/10 04:07:38;;;;;;;12.90;10.68;;;9.50;99.90;;;;;;5026590;28;20025;-42
2022/02/10 04:12:58;;;;;;;14.68;10.88;;;9.50;99.90;;;;;;5026463;28;20392;-43
2022/02/10 04:21:17;;;;;;;14.48;11.40;;;9.50;99.90;;;;;;5026648;28;20079;-42
2022/02/10 04:26:33;;;;;;;13.73;11.30;;;9.50;99.90;;;;;;5025884;28;20732;-43
2022/02/10 04:53:16;;;;;;;15.90;12.52;;;9.50;99.90;;;;;;5026405;28;20045;-42
2022/02/10 05:02:12;;;;;;;14.20;11.32;;;9.40;99.90;;;;;;5025538;28;20029;-43
2022/02/10 05:05:30;;;;;;;14.15;12.63;;;9.40;99.90;;;;;;5025691;28;20053;-42
2022/02/10 05:08:44;;;;;;;15.57;12.02;;;9.40;99.90;;;;;;5026344;28;20021;-42
2022/02/10 05:21:29;;;;;;;17.83;13.10;;;9.40;99.90;;;;;;5026042;28;20045;-43
2022/02/10 05:24:11;;;;;;;16.52;12.50;;;9.40;99.90;;;;;;5025331;28;20108;-42
2022/02/10 05:32:29;;;;;;;13.40;11.02;;;9.40;99.90;;;;;;5025911;28;20056;-43
2022/02/10 05:35:11;;;;;;;16.17;13.90;;;9.40;99.90;;;;;;5025710;28;20612;-43
2022/02/10 05:37:37;;;;;;;19.20;14.52;;;9.30;99.90;;;;;;5005559;28;20026;-42
2022/02/10 05:40:06;;;;;;;19.85;14.95;;;9.30;99.90;;;;;;5020865;28;20491;-42
2022/02/10 05:45:29;;;;;;;16.67;12.98;;;9.30;99.90;;;;;;4991271;28;20038;-43
2022/02/10 05:56:23;;;;;;;18.83;15.07;;;9.30;99.90;;;;;;4987457;28;20025;-42
2022/02/10 06:46:57;;;;;;;27.77;18.67;;;9.10;99.90;;;;;;5012460;28;20041;-42
2022/02/10 06:48:34;;;;;;;35.63;22.08;;;9.10;99.90;;;;;;5029211;28;20060;-43
2022/02/10 06:56:13;;;;;;;31.45;21.42;;;9.10;99.90;;;;;;5030408;28;20461;-42
2022/02/10 07:09:32;;;;;;;32.75;21.98;;;8.90;99.90;;;;;;5029196;28;20049;-42
2022/02/10 07:42:41;;;;;;;32.38;21.20;;;8.80;99.90;;;;;;5029996;28;20476;-42
2022/02/10 07:47:46;;;;;;;6.65;4.20;;;8.30;99.90;;;;;;5027249;28;20497;-42
2022/02/10 07:50:41;;;;;;;4.60;3.35;;;8.20;99.90;;;;;;5026507;28;20416;-43
2022/02/10 07:53:21;;;;;;;3.00;2.33;;;8.20;99.90;;;;;;5026779;28;20445;-42
2022/02/10 07:58:56;;;;;;;2.72;2.28;;;8.20;99.90;;;;;;5026511;28;20036;-42
2022/02/10 08:04:33;;;;;;;2.28;1.90;;;8.20;99.90;;;;;;5026728;28;20034;-43
2022/02/10 08:49:37;;;;;;;2.30;1.90;;;8.20;99.90;;;;;;5026946;28;20041;-43
2022/02/10 09:07:00;;;;;;;4.40;1.35;;;8.10;99.90;;;;;;5026073;28;20483;-42
2022/02/10 09:55:16;;;;;;;2.90;1.08;;;8.40;99.90;;;;;;5022901;28;20128;-42
2022/02/10 09:57:45;;;;;;;3.75;1.30;;;8.40;99.90;;;;;;5023717;28;20057;-42
2022/02/10 10:00:21;;;;;;;4.57;1.25;;;8.40;99.90;;;;;;5015982;28;20030;-42
2022/02/10 10:05:26;;;;;;;3.75;1.45;;;8.50;99.90;;;;;;5024473;28;20057;-42
2022/02/10 10:08:12;;;;;;;2.47;1.02;;;8.50;99.90;;;;;;5025209;28;20376;-42
2022/02/10 10:13:36;;;;;;;4.40;0.93;;;8.60;99.90;;;;;;5025096;28;20040;-43
2022/02/10 10:21:28;;;;;;;5.05;1.20;;;8.70;99.90;;;;;;5025337;28;20033;-44
2022/02/10 10:27:24;;;;;;;3.38;1.25;;;8.80;99.90;;;;;;5024272;28;21060;-42
2022/02/10 10:54:35;;;;;;;3.88;1.88;;;9.10;99.90;;;;;;5023969;28;20033;-43
2022/02/10 10:57:10;;;;;;;5.22;2.22;;;9.10;99.90;;;;;;5015365;28;20128;-42
2022/02/10 11:38:09;;;;;;;5.80;3.63;;;9.50;99.90;;;;;;5027603;28;20044;-42
2022/02/10 11:41:07;;;;;;;4.85;3.15;;;9.60;99.90;;;;;;5027730;28;20099;-42
2022/02/10 11:44:01;;;;;;;8.02;5.07;;;9.70;99.90;;;;;;5024609;28;20112;-43
2022/02/10 12:29:30;;;;;;;7.43;4.10;;;10.10;99.90;;;;;;5027727;28;20052;-43
2022/02/10 14:09:07;;;;;;;4.68;1.40;;;9.90;99.90;;;;;;5024512;28;20101;-43
2022/02/10 14:09:52;;;;;;;3.42;1.35;;;9.60;99.90;;;;;;5025578;28;20091;-43
2022/02/10 14:14:52;;;;;;;8.25;1.98;;;9.70;99.90;;;;;;5025212;28;20059;-43
2022/02/10 14:17:30;;;;;;;6.63;1.90;;;9.70;99.90;;;;;;5023849;28;20052;-43
2022/02/10 14:20:00;;;;;;;4.93;1.33;;;9.60;99.90;;;;;;5032077;28;20086;-43
2022/02/10 14:27:45;;;;;;;5.43;1.45;;;9.60;99.90;;;;;;5025307;28;20063;-44
2022/02/10 14:30:11;;;;;;;3.83;1.42;;;9.50;99.90;;;;;;5025145;28;20489;-42
2022/02/10 14:32:41;;;;;;;9.30;1.13;;;9.50;99.90;;;;;;5024044;28;20025;-42
2022/02/10 14:35:15;;;;;;;4.90;1.23;;;9.50;99.90;;;;;;5025770;28;20396;-42
2022/02/10 14:38:09;;;;;;;3.88;0.93;;;9.50;99.90;;;;;;5029118;28;20035;-42
2022/02/10 15:10:46;;;;;;;5.95;1.40;;;9.50;99.90;;;;;;5029524;28;20037;-42
2022/02/10 15:11:48;;;;;;;7.65;1.35;;;9.40;99.90;;;;;;5028557;28;20135;-43
2022/02/10 15:28:49;;;;;;;4.88;1.13;;;9.40;99.90;;;;;;5028095;28;20515;-43
2022/02/10 16:10:49;;;;;;;5.18;1.33;;;8.90;99.90;;;;;;5027198;28;20049;-44
2022/02/10 16:11:08;;;;;;;3.92;1.20;;;8.90;99.90;;;;;;5033871;28;20052;-44
2022/02/10 16:18:51;;;;;;;6.25;1.30;;;8.80;99.90;;;;;;5027514;28;20041;-43
2022/02/10 16:22:25;;;;;;;3.15;1.02;;;8.70;99.90;;;;;;5026810;28;20025;-43
2022/02/10 16:24:19;;;;;;;3.10;1.00;;;8.70;99.90;;;;;;4992631;28;20080;-41
2022/02/10 16:27:30;;;;;;;5.43;1.10;;;8.60;99.90;;;;;;5023536;28;20671;-42
2022/02/10 16:29:34;;;;;;;4.43;1.20;;;8.60;99.90;;;;;;5000258;28;20041;-43
2022/02/10 16:32:00;;;;;;;3.95;1.17;;;8.60;99.90;;;;;;5023547;28;20037;-41
2022/02/10 16:34:25;;;;;;;2.90;0.93;;;8.60;99.90;;;;;;5026480;28;20496;-43
2022/02/10 16:36:53;;;;;;;2.72;0.90;;;8.60;99.90;;;;;;5026581;28;20017;-43
2022/02/10 16:39:19;;;;;;;3.47;1.10;;;8.50;99.90;;;;;;5026161;28;20108;-43
2022/02/10 16:41:45;;;;;;;5.47;1.77;;;8.50;99.90;;;;;;5026510;28;20112;-42
2022/02/10 16:44:11;;;;;;;6.38;1.30;;;8.50;99.90;;;;;;5026866;28;20025;-42
2022/02/10 16:46:36;;;;;;;3.60;1.33;;;8.40;99.90;;;;;;5025799;28;20428;-42
2022/02/10 16:49:02;;;;;;;4.53;2.03;;;8.40;99.90;;;;;;5026515;28;20144;-42
2022/02/10 16:51:28;;;;;;;6.72;1.17;;;8.40;99.90;;;;;;5026737;28;20029;-43
2022/02/10 16:54:04;;;;;;;4.78;1.13;;;8.30;99.90;;;;;;5025921;28;20025;-42
2022/02/10 16:56:37;;;;;;;6.45;1.40;;;8.30;99.90;;;;;;5025848;28;20037;-42
2022/02/10 17:27:40;;;;;;;1.83;0.88;;;8.10;99.90;;;;;;5025101;28;20145;-41
2022/02/10 17:35:54;;;;;;;3.10;1.25;;;8.10;99.90;;;;;;5025457;28;20047;-44
2022/02/10 17:46:22;;;;;;;4.40;0.98;;;8.00;99.90;;;;;;5024905;28;20033;-42
2022/02/10 17:51:56;;;;;;;6.40;1.15;;;8.00;99.90;;;;;;5021317;28;20095;-42
2022/02/10 17:54:26;;;;;;;5.20;1.63;;;8.00;99.90;;;;;;5024954;28;20381;-43
2022/02/10 17:56:52;;;;;;;4.18;1.20;;;8.00;99.90;;;;;;5024153;28;20079;-43
2022/02/10 17:59:22;;;;;;;6.03;1.33;;;7.90;99.90;;;;;;5024729;28;20018;-43
2022/02/10 18:01:52;;;;;;;7.13;1.40;;;7.90;99.90;;;;;;5025660;28;20026;-42
2022/02/10 18:04:19;;;;;;;6.85;2.17;;;7.90;99.90;;;;;;5023334;28;20441;-43
2022/02/10 18:06:48;;;;;;;8.75;2.13;;;7.90;99.90;;;;;;5025248;28;20034;-42
2022/02/10 18:14:31;;;;;;;8.15;3.15;;;7.80;99.90;;;;;;5024781;28;20565;-42
2022/02/10 18:17:06;;;;;;;7.28;2.17;;;7.80;99.90;;;;;;5025107;28;20065;-43
2022/02/10 18:19:45;;;;;;;5.53;1.63;;;7.80;99.90;;;;;;5024135;28;20029;-42
2022/02/10 18:25:32;;;;;;;5.35;1.50;;;7.70;99.90;;;;;;5024938;28;20195;-41
2022/02/10 18:33:41;;;;;;;4.28;1.40;;;7.70;99.90;;;;;;5025321;28;20052;-43
2022/02/10 18:37:57;;;;;;;3.40;1.40;;;7.70;99.90;;;;;;5025174;28;20029;-43
2022/02/10 19:07:02;;;;;;;6.85;1.75;;;7.50;99.90;;;;;;5000480;28;20021;-43
2022/02/10 19:09:33;;;;;;;5.97;1.65;;;7.40;99.90;;;;;;5025140;28;20392;-43
2022/02/10 19:12:05;;;;;;;5.00;1.40;;;7.40;99.90;;;;;;5025314;28;20109;-42
2022/02/10 19:14:35;;;;;;;6.03;1.80;;;7.40;99.90;;;;;;5024265;28;20033;-43
2022/02/10 19:17:01;;;;;;;7.30;2.15;;;7.40;99.90;;;;;;5025175;28;20506;-42
2022/02/10 19:19:26;;;;;;;6.45;1.50;;;7.30;99.90;;;;;;5024332;28;20061;-44
2022/02/10 19:21:52;;;;;;;4.13;1.38;;;7.40;99.90;;;;;;5026848;28;20372;-42
2022/02/10 19:24:17;;;;;;;7.30;1.58;;;7.40;99.90;;;;;;5028187;28;20041;-43
2022/02/10 19:26:50;;;;;;;6.10;1.70;;;7.30;99.90;;;;;;5028313;28;20025;-43
2022/02/10 19:29:16;;;;;;;6.18;2.10;;;7.20;99.90;;;;;;5028072;28;20133;-43
2022/02/10 19:31:42;;;;;;;4.28;1.83;;;7.20;99.90;;;;;;5028499;28;20032;-43
2022/02/10 19:34:07;;;;;;;3.63;1.63;;;7.20;99.90;;;;;;5028012;28;20326;-44
2022/02/10 19:36:34;;;;;;;7.13;1.98;;;7.20;99.90;;;;;;5028606;28;20022;-43
2022/02/10 19:38:59;;;;;;;3.10;1.30;;;7.10;99.90;;;;;;5028397;28;20096;-43
2022/02/10 19:41:32;;;;;;;6.60;1.75;;;7.10;99.90;;;;;;5027833;28;20536;-43
2022/02/10 19:43:58;;;;;;;3.92;1.58;;;7.10;99.90;;;;;;5030278;28;20068;-44
2022/02/10 19:46:24;;;;;;;6.07;1.52;;;7.10;99.90;;;;;;5028066;28;20026;-43
2022/02/10 19:48:49;;;;;;;7.00;2.22;;;7.10;99.90;;;;;;5027337;28;20358;-44
2022/02/10 19:51:15;;;;;;;5.30;1.90;;;7.10;99.90;;;;;;5027565;28;20507;-42
2022/02/10 19:53:40;;;;;;;4.30;1.50;;;7.10;99.90;;;;;;5027666;28;20025;-43
2022/02/10 19:56:07;;;;;;;6.75;1.95;;;7.00;99.90;;;;;;5028079;28;20025;-44
2022/02/10 19:58:33;;;;;;;4.68;1.75;;;7.00;99.90;;;;;;5027684;28;20034;-44
2022/02/10 20:01:00;;;;;;;6.88;2.67;;;7.00;99.90;;;;;;5028285;28;20021;-42
2022/02/10 20:03:27;;;;;;;3.25;1.30;;;7.00;99.90;;;;;;5026762;28;20033;-43
2022/02/10 20:05:53;;;;;;;7.30;1.83;;;7.00;99.90;;;;;;5028191;28;20586;-43
2022/02/10 20:08:21;;;;;;;10.23;2.10;;;6.90;99.90;;;;;;5026561;28;20029;-44
2022/02/10 20:10:51;;;;;;;3.97;1.50;;;6.90;99.90;;;;;;5026648;28;20171;-44
2022/02/10 20:13:16;;;;;;;4.05;1.77;;;6.90;99.90;;;;;;5027073;28;20099;-43
2022/02/10 20:15:43;;;;;;;5.22;1.92;;;6.90;99.90;;;;;;5027166;28;20075;-43
2022/02/10 20:18:12;;;;;;;5.60;2.15;;;6.90;99.90;;;;;;5027055;28;20035;-43
2022/02/10 20:20:38;;;;;;;5.45;1.63;;;6.90;99.90;;;;;;5016311;28;20025;-44
2022/02/10 20:23:03;;;;;;;5.30;2.08;;;6.80;99.90;;;;;;5026872;28;20029;-43
2022/02/10 20:25:31;;;;;;;7.07;1.73;;;6.80;99.90;;;;;;5025503;28;20670;-43
2022/02/10 20:27:57;;;;;;;4.18;2.00;;;6.80;99.90;;;;;;5026750;28;20032;-43
2022/02/10 20:30:24;;;;;;;7.78;1.90;;;6.80;99.90;;;;;;5025715;28;20029;-44
2022/02/10 20:32:49;;;;;;;9.60;2.40;;;6.80;99.90;;;;;;5026613;28;20026;-42
2022/02/10 20:35:16;;;;;;;6.20;2.30;;;6.70;99.90;;;;;;5026540;28;20495;-43
2022/02/10 20:37:42;;;;;;;5.20;1.98;;;6.70;99.90;;;;;;5024214;28;20612;-44
2022/02/10 20:40:08;;;;;;;5.53;2.53;;;6.70;99.90;;;;;;5025115;28;20678;-43
2022/02/10 20:42:34;;;;;;;7.07;2.72;;;6.70;99.90;;;;;;5025635;28;20017;-43
2022/02/10 20:45:00;;;;;;;6.45;2.70;;;6.60;99.90;;;;;;5025747;28;20032;-43
2022/02/10 20:47:27;;;;;;;6.07;3.15;;;6.60;99.90;;;;;;5025637;28;20026;-43
2022/02/10 20:49:52;;;;;;;7.05;3.17;;;6.60;99.90;;;;;;5025419;28;20029;-43
2022/02/10 20:52:18;;;;;;;9.18;2.83;;;6.60;99.90;;;;;;5024588;28;20025;-43
2022/02/10 20:54:45;;;;;;;7.60;2.80;;;6.60;99.90;;;;;;5026147;28;20456;-43
2022/02/10 20:57:11;;;;;;;8.90;2.72;;;6.50;99.90;;;;;;5025304;28;20036;-43
2022/02/10 20:59:43;;;;;;;5.97;2.30;;;6.50;99.90;;;;;;5024987;28;20745;-42
2022/02/10 21:02:15;;;;;;;6.93;2.27;;;6.50;99.90;;;;;;5025522;28;20091;-42
2022/02/10 21:04:52;;;;;;;;;;;6.50;99.90;;;;;;5026355;28;20292;-42
2022/02/10 21:07:26;;;;;;;5.90;2.30;;;6.50;99.90;;;;;;5015472;28;19913;-43
2022/02/10 21:09:59;;;;;;;4.57;2.10;;;6.40;99.90;;;;;;5025581;28;20611;-43
2022/02/10 21:12:29;;;;;;;10.85;2.70;;;6.40;99.90;;;;;;5014307;28;20025;-43
2022/02/10 21:14:55;;;;;;;5.10;2.58;;;6.30;99.90;;;;;;5026124;28;20393;-42
2022/02/10 21:17:25;;;;;;;5.20;2.50;;;6.30;99.90;;;;;;5024910;28;20025;-44
2022/02/10 21:19:56;;;;;;;7.78;2.80;;;6.30;99.90;;;;;;5025724;28;20132;-43
2022/02/10 21:22:22;;;;;;;6.53;2.60;;;6.30;99.90;;;;;;5024488;28;20025;-43
2022/02/10 21:24:56;;;;;;;9.20;2.90;;;6.30;99.90;;;;;;5024759;28;20021;-43
2022/02/10 21:27:32;;;;;;;6.75;2.33;;;6.30;99.90;;;;;;5023711;28;20025;-44
2022/02/10 21:30:04;;;;;;;5.70;2.70;;;6.20;99.90;;;;;;5025742;28;20094;-44
2022/02/10 21:32:33;;;;;;;5.32;2.15;;;6.20;99.90;;;;;;5024386;28;20079;-44
2022/02/10 21:35:20;;;;;;;5.13;2.60;;;6.20;99.90;;;;;;5025129;28;20026;-43
2022/02/10 21:38:33;;;;;;;9.30;3.75;;;6.20;99.90;;;;;;5026446;28;20029;-43
2022/02/10 22:10:01;;;;;;;9.68;2.67;;;6.10;99.90;;;;;;5025461;28;20810;-44
2022/02/10 22:21:02;;;;;;;8.80;2.63;;;5.90;99.90;;;;;;5025215;28;20033;-42
2022/02/10 22:23:23;;;;;;;5.10;2.53;;;5.90;99.90;;;;;;5018766;28;20424;-43
2022/02/10 22:25:52;;;;;;;7.38;2.60;;;5.80;99.90;;;;;;5025488;28;20064;-44
2022/02/10 22:28:30;;;;;;;3.72;2.20;;;5.80;99.90;;;;;;5024925;28;20041;-44
2022/02/10 22:36:24;;;;;;;10.80;2.60;;;5.60;99.90;;;;;;5024620;28;20452;-43
2022/02/10 22:38:53;;;;;;;7.47;2.55;;;5.50;99.90;;;;;;5025177;28;20053;-42
2022/02/10 22:41:20;;;;;;;4.80;2.17;;;5.50;99.90;;;;;;5024571;28;20112;-44
2022/02/10 22:43:49;;;;;;;5.07;2.60;;;5.40;99.90;;;;;;5024484;28;20029;-44
2022/02/10 22:46:15;;;;;;;6.13;2.50;;;5.40;99.90;;;;;;5024560;28;20035;-45
2022/02/10 22:48:44;;;;;;;5.32;2.30;;;5.30;99.90;;;;;;5024578;28;20488;-43
2022/02/10 22:51:10;;;;;;;7.57;2.67;;;5.30;99.90;;;;;;5024217;28;20045;-43
2022/02/10 22:53:36;;;;;;;9.23;2.90;;;5.30;99.90;;;;;;5021819;28;20466;-43
2022/02/10 22:56:02;;;;;;;7.85;2.63;;;5.30;99.90;;;;;;5024173;28;20029;-43
2022/02/10 22:58:29;;;;;;;6.85;2.42;;;5.30;99.90;;;;;;5026460;28;20432;-43
2022/02/10 23:00:55;;;;;;;5.65;2.50;;;5.20;99.90;;;;;;5026909;28;20055;-44
2022/02/10 23:03:24;;;;;;;6.35;2.78;;;5.20;99.90;;;;;;5026610;28;20495;-43
2022/02/10 23:05:51;;;;;;;5.50;2.00;;;5.20;99.90;;;;;;5028294;28;20048;-42
2022/02/10 23:08:17;;;;;;;4.40;1.98;;;5.20;99.90;;;;;;5027932;28;20464;-43
2022/02/10 23:10:47;;;;;;;3.83;2.13;;;5.10;99.90;;;;;;5020628;28;20131;-43
2022/02/10 23:13:20;;;;;;;4.95;2.25;;;5.10;99.90;;;;;;5028232;28;20029;-43
2022/02/10 23:15:46;;;;;;;5.28;1.80;;;5.00;99.90;;;;;;5028692;28;20042;-43
2022/02/10 23:18:17;;;;;;;3.25;1.95;;;5.00;99.90;;;;;;5028835;28;20020;-43
2022/02/10 23:20:44;;;;;;;5.53;2.15;;;5.00;99.90;;;;;;5027717;28;20024;-43
2022/02/10 23:23:12;;;;;;;3.92;1.90;;;4.90;99.90;;;;;;5028325;28;20044;-44
2022/02/10 23:25:42;;;;;;;3.30;1.70;;;4.90;99.90;;;;;;5027411;28;20040;-44
2022/02/10 23:28:15;;;;;;;6.13;1.98;;;4.90;99.90;;;;;;5028204;28;20064;-44
2022/02/10 23:30:46;;;;;;;7.28;2.45;;;4.80;99.90;;;;;;5026077;28;20075;-43
2022/02/10 23:33:25;;;;;;;7.03;2.13;;;4.80;99.90;;;;;;5026960;28;20025;-43
2022/02/10 23:38:23;;;;;;;5.95;3.28;;;4.80;99.90;;;;;;5027718;28;20520;-42
2022/02/10 23:43:33;;;;;;;5.88;2.17;;;4.80;99.90;;;;;;5027272;28;20040;-43
2022/02/10 23:45:59;;;;;;;4.68;2.40;;;4.80;99.90;;;;;;5027955;28;20026;-42
2022/02/10 23:48:26;;;;;;;3.55;1.95;;;4.80;99.90;;;;;;5026847;28;20040;-43
2022/02/10 23:50:51;;;;;;;6.82;2.42;;;4.70;99.90;;;;;;5027236;28;20041;-43
2022/02/10 23:53:17;;;;;;;7.65;2.47;;;4.70;99.90;;;;;;5027078;28;20088;-42
2022/02/10 23:55:45;;;;;;;9.10;3.05;;;4.70;99.90;;;;;;5026903;28;20029;-43
2022/02/10 23:58:26;;;;;;;6.70;3.38;;;4.70;99.90;;;;;;5027541;28;20108;-43
